CheckWX is a tool to help pilots better visualize weather data.  It is not intended as a substitute for an official pre-flight weather briefing.

06:46:51 UTC

PATO METAR
Portage Glacier Airport
Portage, Alaska, USA
Current

54 mins ago

PATO 140553Z AUTO 14008G20KT 100V160 4SM RA BR FEW014 OVC031 08/07 A2915 RMK AO2 PK WND 14026/0526 SLP871 P0010 60038 T00780067 10083 20056 58021 TSNO $
Observed
Nov-14 @ 05:53 UTC
Wind
  • 140° at 8 KTS
  • Gusting to 20 KTS
Visibility
4 SM
Flight Rules
MVFR
Conditions
Rain, Mist
Cloud Levels
  • Few at 1,400' AGL
  • Overcast at 3,100' AGL
Temperature
C / 46°F
Dewpoint
C / 45°F
Humidity
93%
Altimeter
29.15" Hg
Pressure
987.12 hPa
Current Rain
0.1"
Previous

2 hours ago

PATO 140502Z AUTO VRB06G17KT 3SM RA BR OVC031 07/07 A2917 RMK AO2 P0002 T00720067 TSNO $
Observed
Nov-14 @ 05:02 UTC
Wind
  • Variable at 6 KTS
  • Gusting to 17 KTS
Visibility
3 SM
Flight Rules
MVFR
Conditions
Rain, Mist
Cloud Levels
  • Overcast at 3,100' AGL
Temperature
C / 45°F
Dewpoint
C / 45°F
Humidity
100%
Altimeter
29.17" Hg
Pressure
987.82 hPa
Current Rain
0.02"
Previous

2 hours ago

PATO 140453Z AUTO 3SM RA BR OVC029 07/07 A2917 RMK AO2 SLP878 P0007 T00720067 TSNO $
Observed
Nov-14 @ 04:53 UTC
Visibility
3 SM
Flight Rules
MVFR
Conditions
Rain, Mist
Cloud Levels
  • Overcast at 2,900' AGL
Temperature
C / 45°F
Dewpoint
C / 45°F
Humidity
100%
Altimeter
29.17" Hg
Pressure
987.82 hPa
Current Rain
0.07"